DAAJ

Djanet Inedbirene Airport

Djanet, Algeria
METAR DAAJ 190700Z 35006KT CAVOK 30/07 Q1021
Observed Flight Rules
Jul-19 @ 07:00 UTC (43 minutes ago) Visual Flight Rules
Wind Visibility Clouds
350° at 6 knots 10,000+ meters
  • Clear skies
Temperatures Readings
Current 30°C / 86°F
Dewpoint 7°C / 45°F
Humidity 24%
Altimeter 30.15" Hg
Pressure 1021 hPa
Elevation 968
METAR DAAJ 190700Z 35006KT CAVOK 30/07 Q1021
Observed Flight Rules
Jul-19 @ 07:00 UTC
(43 minutes ago)
VFR
Wind Visibility
350° at 6 knots 10,000+ meters
Clouds
  • Clear skies
Temperature Dewpoint
30°C / 86°F 7°C / 45°F
Humidity Altimeter Pressure
24% 30.15" Hg 1021 hPa